createdAt,value
2023-02-08T00:03:34.410Z,9.93
2023-02-08T00:08:26.194Z,12.40
2023-02-08T00:13:19.421Z,12.87
2023-02-08T00:18:11.320Z,9.17
2023-02-08T00:23:03.044Z,9.40
2023-02-08T00:27:54.702Z,12.13
2023-02-08T00:32:46.281Z,11.13
2023-02-08T00:37:37.955Z,8.83
2023-02-08T00:42:30.187Z,9.30
2023-02-08T00:47:21.983Z,10.27
2023-02-08T00:52:13.605Z,10.87
2023-02-08T00:57:05.249Z,9.17
2023-02-08T01:01:56.996Z,8.73
2023-02-08T01:06:48.642Z,12.27
2023-02-08T01:11:40.261Z,9.77
2023-02-08T01:16:34.095Z,11.07
2023-02-08T01:21:28.834Z,12.07
2023-02-08T01:26:22.475Z,8.97
2023-02-08T01:31:20.006Z,9.47
2023-02-08T01:36:12.281Z,10.43
2023-02-08T01:41:11.214Z,9.30
2023-02-08T01:46:02.858Z,9.63
2023-02-08T01:50:59.813Z,11.67
2023-02-08T01:55:57.647Z,8.80
2023-02-08T02:00:49.298Z,11.63
2023-02-08T02:05:48.706Z,9.93
2023-02-08T02:10:42.531Z,9.67
2023-02-08T02:15:35.289Z,11.30
2023-02-08T02:20:53.380Z,10.27
2023-02-08T02:26:03.815Z,9.13
2023-02-08T02:31:08.849Z,11.97
2023-02-08T02:36:07.391Z,9.23
2023-02-08T02:41:37.648Z,10.70
2023-02-08T02:46:43.750Z,10.70
2023-02-08T02:51:38.286Z,11.43
2023-02-08T02:56:43.063Z,11.53
2023-02-08T03:01:35.145Z,11.23
2023-02-08T03:06:36.474Z,11.80
2023-02-08T03:11:39.861Z,11.13
2023-02-08T03:17:16.558Z,10.77
2023-02-08T03:22:23.679Z,10.07
2023-02-08T03:27:27.487Z,9.73
2023-02-08T03:32:25.775Z,10.97
2023-02-08T03:37:25.844Z,12.50
2023-02-08T03:42:24.710Z,14.43
2023-02-08T03:47:22.145Z,11.17
2023-02-08T03:52:14.444Z,12.13
2023-02-08T03:57:15.751Z,13.57
2023-02-08T04:02:12.394Z,9.87
2023-02-08T04:07:04.904Z,10.43
2023-02-08T04:11:56.611Z,11.80
2023-02-08T04:16:48.223Z,11.53
2023-02-08T04:21:39.871Z,9.83
2023-02-08T04:26:31.584Z,11.47
2023-02-08T04:31:23.208Z,10.53
2023-02-08T04:36:14.976Z,12.43
2023-02-08T04:41:06.628Z,11.77
2023-02-08T04:45:58.296Z,11.43
2023-02-08T04:50:49.861Z,10.33
2023-02-08T04:55:41.762Z,9.33
2023-02-08T05:00:33.318Z,7.90
2023-02-08T05:05:28.046Z,9.60
2023-02-08T05:10:20.430Z,10.67
2023-02-08T05:15:12.025Z,9.37
2023-02-08T05:20:04.672Z,10.43
2023-02-08T05:24:56.280Z,10.40
2023-02-08T05:29:47.969Z,12.33
2023-02-08T05:34:39.699Z,10.40
2023-02-08T05:39:34.227Z,10.43
2023-02-08T05:44:25.939Z,10.10
2023-02-08T05:49:17.564Z,13.93
2023-02-08T05:54:09.176Z,10.73
2023-02-08T05:59:01.846Z,10.93
2023-02-08T06:03:54.171Z,12.40
2023-02-08T06:08:46.208Z,11.00
2023-02-08T06:13:39.013Z,12.40
2023-02-08T06:18:30.647Z,11.77
2023-02-08T06:23:23.436Z,11.37
2023-02-08T06:28:15.098Z,13.37
2023-02-08T06:33:06.720Z,14.70
2023-02-08T06:37:58.891Z,11.60
2023-02-08T06:42:50.751Z,15.13
2023-02-08T06:47:42.647Z,13.73
2023-02-08T06:52:34.315Z,11.97
2023-02-08T06:57:26.006Z,10.37
2023-02-08T07:02:20.447Z,10.47
2023-02-08T07:07:13.406Z,13.77
2023-02-08T07:12:05.421Z,10.57
2023-02-08T07:16:57.162Z,11.33
2023-02-08T07:21:48.760Z,14.53
2023-02-08T07:26:40.437Z,10.77
2023-02-08T07:31:32.171Z,12.47
2023-02-08T07:36:23.841Z,11.57
2023-02-08T07:41:15.729Z,9.47
2023-02-08T07:46:17.173Z,11.93
2023-02-08T07:51:10.154Z,14.23
2023-02-08T07:56:01.897Z,13.67
2023-02-08T08:00:53.480Z,13.97
2023-02-08T08:05:45.270Z,12.33
2023-02-08T08:10:37.159Z,12.20
2023-02-08T08:15:29.590Z,11.57
2023-02-08T08:20:21.454Z,12.50
2023-02-08T08:25:13.845Z,10.67
2023-02-08T08:30:14.275Z,7.80
2023-02-08T08:35:07.363Z,9.17
2023-02-08T08:39:58.955Z,11.93
2023-02-08T08:44:50.633Z,10.33
2023-02-08T08:49:43.792Z,7.50
2023-02-08T08:54:35.765Z,10.40
2023-02-08T08:59:27.853Z,9.33
2023-02-08T09:04:22.643Z,10.20
2023-02-08T09:09:14.421Z,11.00
2023-02-08T09:14:06.448Z,9.27
2023-02-08T09:19:02.100Z,9.57
2023-02-08T09:23:53.814Z,10.50
2023-02-08T09:28:45.943Z,8.40
2023-02-08T09:33:37.524Z,9.03
2023-02-08T09:38:29.349Z,9.97
2023-02-08T09:43:45.340Z,9.40
2023-02-08T09:48:40.347Z,10.23
2023-02-08T09:53:47.551Z,8.20
2023-02-08T09:59:00.832Z,7.63
2023-02-08T10:03:58.053Z,9.97
2023-02-08T10:08:52.414Z,11.47
2023-02-08T10:14:13.741Z,8.23
2023-02-08T10:19:32.538Z,8.77
2023-02-08T10:24:45.548Z,8.60
2023-02-08T10:29:54.620Z,8.83
2023-02-08T10:34:51.581Z,9.67
2023-02-08T10:39:43.410Z,9.07
2023-02-08T10:44:58.135Z,8.70
2023-02-08T10:49:58.060Z,13.37
2023-02-08T10:54:49.791Z,7.60
2023-02-08T11:00:22.415Z,10.70
2023-02-08T11:05:18.021Z,8.83
2023-02-08T11:10:19.087Z,7.13
2023-02-08T11:15:23.448Z,7.63
2023-02-08T11:20:28.804Z,8.83
2023-02-08T11:25:53.532Z,9.07
2023-02-08T11:30:56.069Z,8.40
2023-02-08T11:35:55.695Z,10.70
2023-02-08T11:40:47.320Z,9.37
2023-02-08T11:45:39.212Z,6.37
2023-02-08T11:50:34.026Z,6.13
2023-02-08T11:55:28.333Z,5.50
2023-02-08T12:00:26.305Z,6.50
2023-02-08T12:05:22.718Z,5.97
2023-02-08T12:10:39.564Z,6.73
2023-02-08T12:15:58.537Z,8.53
2023-02-08T12:21:25.392Z,6.60
2023-02-08T12:26:25.653Z,5.30
2023-02-08T12:31:28.120Z,6.77
2023-02-08T12:36:32.626Z,6.60
2023-02-08T12:41:46.490Z,4.57
2023-02-08T12:46:43.998Z,6.83
2023-02-08T12:51:41.571Z,5.93
2023-02-08T12:56:38.289Z,6.37
2023-02-08T13:01:40.927Z,7.50
2023-02-08T13:06:49.714Z,4.70
2023-02-08T13:11:57.867Z,4.63
2023-02-08T13:16:55.002Z,4.63
2023-02-08T13:21:46.856Z,5.80
2023-02-08T13:26:40.244Z,4.50
2023-02-08T13:31:41.736Z,6.60
2023-02-08T13:36:36.579Z,5.23
2023-02-08T13:41:29.920Z,4.20
2023-02-08T13:46:24.579Z,5.40
2023-02-08T13:51:31.612Z,4.73
2023-02-08T13:56:49.159Z,2.90
2023-02-08T14:02:13.057Z,5.43
2023-02-08T14:07:16.305Z,5.03
2023-02-08T14:12:19.027Z,4.30
2023-02-08T14:17:19.354Z,3.30
2023-02-08T14:22:10.801Z,4.07
2023-02-08T14:27:28.404Z,3.33
2023-02-08T14:32:25.064Z,2.60
2023-02-08T14:37:21.571Z,3.20
2023-02-08T14:42:14.250Z,3.27
2023-02-08T14:47:36.933Z,3.00
2023-02-08T14:52:29.948Z,2.13
2023-02-08T14:57:28.927Z,2.37
2023-02-08T15:02:23.381Z,3.00
2023-02-08T15:07:47.771Z,2.73
2023-02-08T15:12:40.698Z,2.10
2023-02-08T15:17:44.332Z,2.30
2023-02-08T15:22:38.428Z,3.77
2023-02-08T15:27:34.512Z,4.87
2023-02-08T15:32:28.540Z,3.70
2023-02-08T15:37:20.589Z,3.50
2023-02-08T15:42:18.031Z,2.87
2023-02-08T15:47:17.362Z,2.80
2023-02-08T15:52:16.870Z,3.10
2023-02-08T15:57:33.398Z,3.20
2023-02-08T16:02:31.032Z,2.87
2023-02-08T16:07:31.203Z,3.30
2023-02-08T16:12:24.924Z,3.50
2023-02-08T16:17:41.807Z,3.80
2023-02-08T16:22:33.559Z,2.77
2023-02-08T16:27:28.252Z,4.23
2023-02-08T16:32:22.925Z,4.70
2023-02-08T16:37:27.374Z,4.63
2023-02-08T16:42:33.924Z,3.37
2023-02-08T16:47:28.764Z,6.07
2023-02-08T16:52:20.754Z,4.73
2023-02-08T16:57:12.399Z,5.33
2023-02-08T17:02:09.453Z,4.97
2023-02-08T17:07:01.074Z,5.10
2023-02-08T17:11:52.703Z,5.90
2023-02-08T17:16:44.323Z,6.77
2023-02-08T17:21:36.106Z,4.53
2023-02-08T17:26:32.289Z,5.97
2023-02-08T17:31:24.193Z,7.63
2023-02-08T17:36:17.692Z,6.40
2023-02-08T17:41:18.480Z,7.40
2023-02-08T17:46:11.748Z,8.10
2023-02-08T17:51:08.834Z,8.63
2023-02-08T17:56:00.528Z,9.33
2023-02-08T18:00:52.152Z,7.33
2023-02-08T18:05:43.808Z,5.53
2023-02-08T18:10:35.440Z,6.60
2023-02-08T18:15:27.259Z,6.93
2023-02-08T18:20:18.987Z,7.13
2023-02-08T18:25:11.760Z,8.33
2023-02-08T18:30:03.925Z,7.77
2023-02-08T18:34:56.032Z,8.13
2023-02-08T18:39:48.442Z,7.47
2023-02-08T18:44:40.276Z,9.93
2023-02-08T18:49:32.172Z,7.97
2023-02-08T18:54:23.810Z,8.73
2023-02-08T18:59:15.402Z,9.47
2023-02-08T19:04:07.183Z,9.30
2023-02-08T19:09:01.659Z,8.97
2023-02-08T19:13:56.355Z,10.57
2023-02-08T19:18:48.754Z,12.40
2023-02-08T19:23:40.704Z,9.37
2023-02-08T19:28:33.814Z,9.33
2023-02-08T19:33:25.381Z,9.43
2023-02-08T19:38:18.897Z,12.13
2023-02-08T19:43:10.572Z,11.97
2023-02-08T19:48:02.152Z,10.00
2023-02-08T19:52:53.780Z,8.93
2023-02-08T19:57:45.474Z,10.30
2023-02-08T20:02:38.440Z,11.63
2023-02-08T20:07:30.079Z,8.90
2023-02-08T20:12:22.138Z,13.27
2023-02-08T20:17:13.875Z,9.13
2023-02-08T20:22:05.604Z,11.83
2023-02-08T20:26:57.563Z,11.43
2023-02-08T20:31:53.425Z,9.87
2023-02-08T20:36:57.373Z,10.57
2023-02-08T20:41:57.234Z,10.63
2023-02-08T20:46:48.834Z,11.37
2023-02-08T20:51:40.648Z,8.67
2023-02-08T20:56:35.483Z,15.77
2023-02-08T21:01:28.625Z,11.07
2023-02-08T21:06:26.485Z,9.87
2023-02-08T21:11:24.987Z,8.97
2023-02-08T21:16:17.981Z,11.40
2023-02-08T21:21:10.279Z,11.07
2023-02-08T21:26:03.573Z,10.57
2023-02-08T21:31:00.817Z,9.50
2023-02-08T21:35:52.928Z,11.80
2023-02-08T21:40:45.086Z,10.73
2023-02-08T21:45:37.367Z,9.97
2023-02-08T21:50:47.887Z,9.77
2023-02-08T21:55:45.264Z,9.87
2023-02-08T22:00:37.433Z,10.40
2023-02-08T22:05:29.428Z,11.47
2023-02-08T22:10:26.908Z,9.60
2023-02-08T22:15:21.106Z,9.97
2023-02-08T22:20:14.853Z,9.47
2023-02-08T22:25:07.409Z,9.17
2023-02-08T22:29:59.374Z,9.63
2023-02-08T22:34:51.263Z,8.70
2023-02-08T22:39:43.285Z,9.13
2023-02-08T22:44:36.338Z,10.97
2023-02-08T22:49:29.190Z,10.33
2023-02-08T22:54:21.079Z,8.53
2023-02-08T22:59:12.879Z,12.33
2023-02-08T23:04:05.832Z,10.90
2023-02-08T23:08:58.939Z,9.33
2023-02-08T23:13:50.885Z,9.37
2023-02-08T23:18:42.789Z,9.57
2023-02-08T23:23:34.770Z,9.73
2023-02-08T23:28:26.540Z,8.83
2023-02-08T23:33:18.366Z,8.80
2023-02-08T23:38:10.212Z,9.33
2023-02-08T23:43:01.998Z,11.57
2023-02-08T23:47:53.798Z,9.80
2023-02-08T23:52:45.481Z,9.97
2023-02-08T23:57:37.766Z,10.73
